罗盘
风向 的 风向 的 风向 到 风向 260° Égletons Airport 7/25
风: 4 kt, 2 beaufort

3 kt

0 kt
改变
0 2.000 4.000 6.000 8.000 10.000
SCT 4.300 ft
BKN 5.000 ft
OVC 6.200 ft
METAR LFSL 232030Z AUTO 26004KT 200V300 9999 SCT043 BKN050 OVC062 16/12 Q1011

METAR Égletons Airport

Égletons Airport是Royan,法国中的小机场。 该机场有一条跑道: 7/25.

这份报告是针对2022年5月23日 22:30, 当地时间在Brive-Souillac进行的。

机场观察

风向为260°,速度为4 kt。 风向在200°和300°之间变化。

可见度为10 km 或者更多。

有疏云,零星散落的云朵在4.300 ft的高度, 碎云在5.000 ft的高度 和 乌云密布在6.200 ft的高度。 破损或更高的上限为5.000 ft。

温度和风寒是16 °C。 露点为12 °C,相对湿度为77%。 海平面上的气压为1011 hPa (QNH)。

白天

今天,太阳从06:13升起,在21:23降落。 这适用于Égletons Airport,世界夏令时可能有所不同。 当地时间与世界标准时间之间的时差为+2 小时。 夏令时目前正在进行中。

公司介绍

我们没有关于这个机场的公司信息。

体会

到Vliegles.nl去找飞行课程,跳伞和其他飞行体验。 浏览页面,了解Égletons Airport附近所有可用的活动。 你也可以使用搜索功能来寻找你所在地附近的特定飞行课程、跳伞或其他飞行体验。

您会帮助我们保持Metar-Taf.com正常运行吗?
您的贡献有助于网站的进一步开发并支付费用。

没有更多广告

您是捐款5美元还是更多?然后,我们将永远不会再向您展示广告,这是我们永恒的感谢!
捐赠前先登录

跑道

Id 标题 侧风 逆风
7/25 070°-250° 3 kt

逆风成分最大的方向会被突出显示,并用于横风计算。 这并不一定意味着这个方向在使用。

乌云

4.300 ft SCT 疏云,零星散落的云朵
5.000 ft BKN 碎云
6.200 ft OVC 乌云密布

温度 & 天气

温度 16 °C
露点 12 °C
相对湿度 77%
Kp-index 0  

公司介绍

新增公司

下载我们的应用程序

在您的手机和平板电脑上轻松访问所有航空天气。
有许多网站上没有的功能,如离线支持和个人机场列表。

Studio Eveline

Benalmádena
España

我们和第三方通过cookies跟踪您在我们网站上的上网行为。如果您继续,我们认为您同意我们的cookie政策。 了解更多